Create Custom Reports and Graphics: Custom Report

North/Central Map

Map

15 Minute Data

South County Map

Map

15 Minute Data

Northern Sonoma County Latest

25 Stations

15 Minute Data | America/Los_Angeles
as of 5/8/26 5:34 PM PDT
Station Date Time Temp (°F) RH (%) Dew Pt (°F) Wind Spd (mph) Wind Dir (°) Wind Gust (mph) Latest Rain (In) Daily Rain (In) Daily Max Temp (°F) Daily Min Temp (°F)
Bavarian Lion EFW 5/8/26 1730 79.6   4.1 - - - - - 0.00 0.00 80.8   3.0 51.7   1.7
Rockpile Lower (Cooley) 5/8/26 1715 74.3   2.3 29   20 39.8   16.0 12.5   7.5 W | 273 19.2   7.8 0.00 0.00 77.6   2.8 46.6   1.5
Rockpile Upper (Cooley) 5/8/26 1730 71.4   2.8 33   16 40.6   13.3 13.0   10.4 NW | 324 21.7   12.9 0.00 0.00 76.7   0.1 43.5   1.3
Lower Dry Creek Valley 5/8/26 1730 75.9   2.7 52   5 57.0   0.1 6.7   1.8 ESE | 109 11.0   3.5 0.00 0.00 78.7   2.9 49.4   2.4
Geyserville-South (Nervo Station) 5/8/26 1730 76.0   3.3 - - 4.5   1.0 SSW | 193 9.8   0.0 0.00 0.00 78.8   3.0 47.3   4.2
Franz Valley (Stornetta) 5/8/26 1730 78.5   4.7 46   10 55.9   1.0 2.7   0.6 WSW | 255 7.2   0.2 0.00 0.00 79.1   3.1 51.0   2.5
Geyserville (Ranch 3) 5/8/26 1730 79.7   4.3 48   7 58.3   0.0 5.0   1.1 SE | 124 9.0   3.0 0.00 0.00 80.8   3.5 47.4   5.4
Geyserville-North (Hoffman) 5/8/26 1730 80.3   4.0 51   7 60.6   0.2 5.3   1.0 ESE | 118 9.9   1.5 0.00 0.00 82.2   3.4 46.5   6.4
Knights Valley (Bavarian Lion) 5/8/26 1730 77.9   4.2 49   8 57.0   0.5 4.3   1.4 WSW | 258 9.2   1.4 0.00 0.00 78.9   2.6 51.0   1.9
HWY 128/Chalk Hill Rd (Landslide) 5/8/26 1700 78.3   3.4 50   7 58.2   0.6 5.2   1.1 SSW | 213 9.7   0.8 0.00 0.00 79.2   3.6 52.5   0.8
Newman Knights Valley 5/8/26 1730 76.3   3.3 65   4 63.8   1.5 5.1   1.4 WSW | 240 7.8   2.6 0.00 0.00 78.0   2.9 52.1   0.3
Jimtown-North (Piccolo Ranch 15) 5/8/26 1730 77.8   3.1 47   6 56.1   0.5 3.6   2.1 S | 191 7.7   3.1 0.00 0.00 80.3   2.6 50.6   1.6
Peterson (Ranch 09) 5/8/26 1730 76.7   3.2 50   5 56.9   0.2 6.1   0.0 S | 187 9.4   0.3 0.00 0.00 79.2   3.0 47.4   4.2
Cloverdale-SE (Ranch 38) 5/8/26 1730 82.7   6.7 32   28 49.5   11.3 3.8   6.6 WSW | 256 10.5   3.8 0.00 0.00 85.0   6.9 47.2   3.7
Geyserville-East (Ranch 40) 5/8/26 1730 75.4   2.9 58   7 59.6   0.4 10.1   2.9 SSW | 195 13.6   4.3 0.00 0.00 79.0   2.3 48.0   2.4
N Chalk Hill Rd (Ranch 63) 5/8/26 1730 76.3   4.0 50   7 56.6   0.0 5.8   0.0 S | 182 9.7   0.9 0.00 0.00 78.0   3.4 50.2   0.6
Cloverdale-East (Ranch 83) 5/8/26 1730 83.3   4.3 - - 5.8   0.1 WNW | 295 11.8   0.1 0.00 0.00 86.4   5.8 45.8   6.6
Crazy Creek Ranch 5/8/26 1730 79.2   4.3 55   8 61.6   0.0 3.4   1.5 S | 189 6.9   1.5 0.00 0.00 80.5   3.7 52.2   0.2
Lytton East (Hill 5) 5/8/26 1730 74.7   4.1 57   5 58.5   1.4 7.4   2.3 S | 174 11.4   3.0 0.00 0.00 77.7   3.6 46.9   4.2
Lytton East (Shop Hill Bottom) 5/8/26 1730 75.0   2.7 55   4 57.7   0.6 6.6   0.1 SSE | 165 11.7   0.4 0.00 0.00 78.1   3.1 46.6   4.6
Lytton West Hill (23PS) 5/8/26 1730 74.7   2.8 54   5 56.8   0.1 6.2   1.2 SSE | 160 11.0   2.6 0.00 0.00 78.0   3.1 50.0   1.4
Lytton West Lower (Lew 6) 5/8/26 1730 75.3   2.6 55   4 57.9   0.7 6.3   0.6 SSE | 162 10.4   2.6 0.00 0.00 78.6   3.4 47.8   3.5
Whitton Ranch (201e) 5/8/26 1730 78.2   3.7 51   6 58.6   0.4 4.5   0.7 S | 175 8.3   1.4 0.00 0.00 80.8   3.0 43.0   9.0
Upper Dry Creek Valley 5/8/26 1715 80.2   4.2 49   7 59.2   0.2 4.9   1.4 SE | 138 10.0   2.6 0.00 0.00 81.5   3.6 46.8   5.1
Big River 5/8/26 1730 75.0   4.3 57   7 58.8   1.0 5.2   2.0 S | 180 10.6   1.9 0.00 0.00 77.3   3.0 49.2   2.2
Max     83.3 65 63.8 13.0 - 21.7 0.00 0.00 86.4 52.5
Avg     77.3 50 56.3 6.0 - 10.7 0.00 - - -
Min     71.4 29 39.8 2.7 - 6.9 0.00 0.00 76.7 43.0

Central Sonoma County Latest

37 Stations

15 Minute Data | America/Los_Angeles
as of 5/8/26 5:34 PM PDT
Station Date Time Temp (°F) RH (%) Dew Pt (°F) Wind Spd (mph) Wind Dir (°) Wind Gust (mph) Latest Rain (In) Daily Rain (In) Daily Max Temp (°F) Daily Min Temp (°F)
Windsor-NW (Ranch 8) 5/8/26 1730 73.6   2.3 61   6 59.3   0.5 2.9   0.8 SSE | 159 9.1   1.5 0.00 0.00 77.8   3.5 51.2   0.8
Windsor-East (Ranch 16) 5/8/26 1730 71.7   3.9 55   7 54.9   0.3 6.4   1.8 SSE | 166 11.2   1.5 0.00 0.00 75.0   3.0 52.0   0.4
Mark West-North (Ranch 14) 5/8/26 1730 70.0   2.9 56   6 53.9   0.1 4.0   1.1 SSE | 150 8.3   1.1 0.00 0.00 74.5   3.6 51.8   0.0
Windsor-SE (Silk Rd) 5/8/26 1715 71.8   2.0 57   6 55.6   0.9 4.6   1.6 SE | 132 11.3   0.1 0.00 0.00 75.8   3.3 51.6   0.6
Fulton-NW (Ranch 5) 5/8/26 1730 70.6   2.6 59   5 55.4   0.2 5.2   1.2 SE | 145 10.2   3.2 0.00 0.00 74.3   2.7 51.6   0.2
Bisordi (Fulton) 5/8/26 1730 70.0   3.6 64   8 57.5   0.3 4.5   1.2 SE | 145 9.4   3.6 0.00 0.00 74.1   3.3 51.9   0.4
Windsor-South (Laughlin Rd) 5/8/26 1730 69.8   1.9 59   6 54.7   1.0 - - - 0.00 0.00 75.5   3.0 51.4   0.3
Fulton-SE (Barnes Rd) 5/8/26 1730 69.0   2.9 59   6 54.1   0.0 0.0   7.0 N | 0 0.0   15.3 0.00 0.00 73.8   2.8 52.2   0.1
Fulton-SW (Ranch 21) 5/8/26 1730 67.5   1.4 64   3 54.9   0.2 8.1   0.1 S | 173 12.5   1.2 0.00 0.00 72.9   3.2 51.1   0.1
NW Santa Rosa (Piner Road) 5/8/26 1730 67.0   1.8 71   7 57.3   0.9 3.7   1.5 S | 172 8.2   3.9 0.00 0.00 72.7   3.7 51.2   0.2
River Rd South (Denner Ranch) 5/8/26 1730 69.2   0.3 60   1 54.8   0.6 8.3   0.1 ESE | 121 12.5   0.2 - - 74.1   2.0 50.9   0.2
West Santa Rosa (LOV Vineyard) 5/8/26 1730 68.9   0.1 62   3 55.2   1.0 3.2   1.0 SSE | 159 9.2   0.5 0.00 0.00 73.4   2.2 51.1   0.4
Guerneville Rd (Prokopakis) 5/8/26 1730 70.7   0.3 58   1 55.3   0.2 - - - 0.00 0.00 77.5   4.4 51.5   0.3
SunnyView Vineyard (SCWC) 5/8/26 1730 67.2   1.5 62   6 53.8   1.1 4.1   0.8 SE | 144 10.3   1.4 0.00 0.00 72.6   3.0 50.9   0.2
Guerneville Rd West (Balletto) 5/8/26 1730 68.4   0.0 68   0 57.3   0.0 5.9   0.1 SE | 145 9.9   1.7 0.00 0.00 73.9   2.7 51.3   0.3
Sanchietti Ranch 5/8/26 1730 67.6   1.6 72   4 58.4   0.0 6.6   0.4 SSE | 157 12.3   0.8 0.00 0.00 73.3   3.6 51.9   0.3
Occidental Rd (Sebastopol) 5/8/26 1730 67.7   0.9 100   3 67.7   0.0 3.9   1.2 SE | 134 9.2   1.5 0.00 0.00 73.4   2.2 50.7   0.4
Harper's Rest (Windsor-West) 5/8/26 1730 73.5   1.8 51   3 54.5   0.0 3.9   1.2 E | 96 7.7   1.5 0.00 0.00 76.9   2.4 49.9   0.8
Lower Westside Rd (Ranch 12) 5/8/26 1730 73.2   0.6 53   1 54.9   0.0 4.0   0.9 ESE | 120 8.1   1.4 0.00 0.00 77.4   1.5 51.2   0.4
Guerneville (Laughlin Rd) 5/8/26 1730 77.5   10.9 46   17 55.3   1.6 3.8   1.0 S | 177 5.9   2.6 0.00 0.00 79.2   7.0 50.8   0.6
Korbel (Winery) 5/8/26 1730 77.5   9.9 51   9 58.1   4.6 4.7   2.2 ESE | 120 8.8   3.3 0.00 0.00 80.7   6.6 51.7   0.4
Forestville (Shone Farms) 5/8/26 1730 71.6   0.0 58   2 56.2   0.8 4.5   0.9 E | 99 9.4   0.3 0.00 0.00 76.6   1.2 49.9   0.0
Forestville-NE (Ranch 30) 5/8/26 1730 71.8   0.5 62   3 58.1   0.8 6.1   1.9 ESE | 122 10.2   1.5 0.00 0.00 76.0   0.1 50.8   0.1
Foggy Bend (Ranch 41) 5/8/26 1730 73.6   3.1 61   2 59.4   2.1 1.5   3.6 E | 83 6.6   2.9 0.00 0.00 77.4   1.8 52.0   0.2
Last Stop 5/8/26 1730 74.5   3.6 59   2 59.0   2.6 4.7   0.9 ESE | 117 8.3   1.4 0.00 0.00 77.0   1.0 51.3   0.1
Green Valley Vineyard 5/8/26 1730 71.9   2.6 58   1 56.4   2.0 3.1   1.2 ESE | 111 6.4   2.4 0.00 0.01 74.6   1.2 50.2   0.1
Park Royal 5/8/26 1730 67.2   1.7 62   5 53.6   0.4 - - - 0.00 0.00 72.6   2.9 50.6   0.5
Merino 5/8/26 1730 67.3   1.8 69   5 56.7   0.4 7.0   1.4 S | 174 11.2   1.5 0.00 0.00 72.2   2.8 51.0   0.5
Green Valley (Sanchietti) 5/8/26 1730 73.5   0.2 - - - - - - - 76.3   0.2 51.7   1.3
Keefer Ranch (Green Valley) 5/8/26 1730 72.9   3.0 60   2 58.2   1.9 - - - 0.00 0.00 75.3   1.1 51.4   0.1
Graton-West (Dutton Ranch) 5/8/26 1730 72.9   3.3 65   9 60.6   0.5 3.4   0.2 SE | 130 6.9   0.0 0.00 0.01 75.5   0.2 51.4   0.1
Graton-South (Mill Station Rd) 5/8/26 1730 71.0   3.6 58   5 55.6   0.9 1.0   1.0 SSE | 163 3.8   1.1 0.00 0.00 72.8   2.5 50.3   0.4
Occidental (Horseshoe Bend) 5/8/26 1730 67.1   4.2 64   6 54.6   1.5 - - - 0.00 0.00 72.3   1.2 48.6   0.7
Sexton Valley (Jacqueline's Blk) 5/8/26 1730 68.5   1.5 68   1 57.5   1.1 2.9   0.6 S | 176 6.3   0.5 0.00 0.01 71.6   2.1 50.8   0.2
Sebastopol Hills (Burnside Rd) 5/8/26 1730 66.7   3.2 70   5 56.7   1.2 4.0   1.3 SSW | 212 6.6   2.3 0.00 0.01 69.3   3.9 49.3   0.2
Pleasant Hill 5/8/26 1730 67.2   2.3 63   5 54.0   0.2 4.2   0.1 SSW | 198 7.7   0.4 0.00 0.01 70.9   2.5 49.7   0.6
Seaview/Fort Ross (Hirsch) 5/8/26 1730 72.5   11.4 45   29 50.1   2.8 4.1   1.1 NNW | 327 8.6   2.4 0.00 0.00 74.4   10.9 43.9   3.3
Max     77.5 100 67.7 8.3 - 12.5 0.00 0.01 80.7 52.2
Avg     70.6 61 56.4 4.3 - 8.6 0.00 - - -
Min     66.7 45 50.1 0.0 - 0.0 0.00 0.00 69.3 43.9

Southern Sonoma County Latest

20 Stations

15 Minute Data
as of 5/8/26 5:34 PM PDT
Station Date Time Temp (°F) RH (%) Dew Pt (°F) Wind Spd (mph) Wind Dir (°) Wind Gust (mph) Latest Rain (In) Daily Rain (In) Daily Min Temp (°F) Daily Max Temp (°F)
Upper Rincon Valley 5/8/26 1730 69.3   5.1 58   12 53.9   0.2 2.2   1.3 S | 176 5.3   3.2 0.00 0.00 48.0   0.1 71.8   4.2
Lower Bennett Valley 5/8/26 1730 66.2   3.4 67   8 55.0   0.1 6.2   0.2 SE | 140 9.9   1.5 0.00 0.00 49.2   0.7 71.3   2.6
Kenwood (Wildwood) 5/8/26 1730 73.7   7.8 54   14 56.1   0.8 2.4   2.6 NNW | 334 6.4   3.2 0.00 0.00 50.1   2.3 76.8   3.9
Crane Creek (Ranch 62) 5/8/26 1730 65.1   1.7 64   6 52.7   0.9 4.1   0.2 SSW | 194 7.5   0.7 0.00 0.00 49.8   1.0 70.5   2.6
Rohnert Park-West (Stony Point) 5/8/26 1730 64.2   2.4 73   5 55.5   0.3 5.6   0.7 S | 190 10.9   2.5 0.00 0.00 50.4   0.8 68.4   3.6
Rice-Spivak Vineyard 5/8/26 1730 66.7   3.4 - - - - - - - 49.9   0.9 70.8   4.0
Cartograph Wines Base 5/8/26 1730 63.4   3.6 76   8 55.8   0.9 5.7   2.8 S | 178 10.0   7.1 0.00 0.00 49.3   0.8 67.1   3.8
Cartograph Wines Remote 5/8/26 1730 62.4   1.2 - - - - - - - 50.0   0.9 67.9   4.2
Penngrove (Asellus) 5/8/26 1730 63.7   3.5 68   8 52.9   0.3 5.3   0.5 S | 189 8.9   2.8 0.00 0.00 49.8   1.1 69.4   3.1
Sonoma Valley (Bedrock) 5/8/26 1730 76.1   6.5 49   12 55.6   0.1 - - - 0.00 0.00 49.5   1.5 78.6   3.9
Sonoma-West (Arnold) 5/8/26 1730 71.5   4.5 60   6 56.8   1.6 6.9   0.5 SW | 217 11.9   3.7 0.00 0.01 51.3   2.6 75.4   0.3
Sonoma Valley HS 5/8/26 1715 71.4   5.2 63   8 58.4   1.5 4.8   1.3 SW | 216 8.3   1.6 0.00 0.00 51.1   0.3 73.5   0.5
Sonoma East (Bundschu01) 5/8/26 1730 71.1   5.3 57   9 55.3   1.2 5.0   2.8 SW | 231 11.0   4.6 0.00 0.00 51.3   0.4 73.6   1.0
Sonoma-SE (Napoli) 5/8/26 1730 70.9   5.9 54   11 53.5   0.3 5.7   3.8 SW | 235 11.8   5.0 0.00 0.00 50.8   0.7 76.0   2.4
Schellville (Sasaki) 2/7/26 1900 53.4   2.2 88   10 49.9   1.0 3.3   1.8 SW | 225 5.8   4.0 0.00 0.00 47.0   0.8 62.8   8.4
Petaluma (Ranch 10) 5/8/26 1730 68.0   5.7 56   13 51.6   0.4 5.9   1.1 W | 280 10.2   1.2 0.00 0.00 51.3   0.9 72.7   3.0
Carneros (Ranch 71) 5/8/26 1730 69.5   6.9 56   15 53.0   0.0 9.0   7.2 WSW | 257 13.6   10.2 0.00 0.00 49.8   1.0 73.5   1.7
Ricci Vineyards (Carneros) 5/8/26 1730 72.4   7.8 53   15 54.0   0.4 5.2   8.0 W | 262 9.0   11.6 0.00 0.00 51.0   0.4 75.7   1.3
Carneros Upper (Ranch 81) 5/8/26 1730 70.7   6.5 52   15 52.4   0.6 9.6   6.0 WSW | 254 14.2   8.8 - - 49.9   1.0 73.4   0.2
Carneros Lower (Ranch 81) 5/8/26 1730 77.6   10.9 46   19 54.9   0.4 0.2   1.9 W | 264 2.8   9.6 0.00 0.00 51.3   0.2 77.7   0.3
Max     77.6 76 58.4 9.6 - 14.2 0.00 0.01 51.3 78.6
Avg     69.2 59 54.6 5.2 - 9.5 0.00 - - -
Min     62.4 46 51.6 0.2 - 2.8 0.00 0.00 48.0 67.1

AQI Map

Map

Hourly Data